Terminal Aerodrome Forecast
Issued by NWS

Home | Current Version | Previous Version | Text Only | Print | Product List | Glossary On
Versions: 1 2 3 4 5 6 7 8 9 10 11 12 13 14
000
FTUS45 KFGZ 171831 AAA
TAFPRC
TAF AMD
KPRC 171831Z 1719/1818 21010G20KT P6SM BKN050 OVC100
      TEMPO 1719/1720 6SM -SHRA OVC050
     FM180100 27008KT P6SM SCT250=

USA.gov is the U.S. government's official web portal to all federal, state and local government web resources and services.